Time;durP1;ratioP1;P1;durP2;ratioP2;P2;SDS_P1;SDS_P2;PMS_P1;PMS_P2;Temp;Humidity;BMP_temperature;BMP_pressure;BME280_temperature;BME280_humidity;BME280_pressure;Samples;Min_cycle;Max_cycle;Signal;HPM_P1;HPM_P2
2021/03/31 00:02:01;;;;;;;13.90;6.60;;;10.90;90.50;;;;;;5089959;28;20380;-66
2021/03/31 00:04:26;;;;;;;14.45;6.85;;;10.90;92.10;;;;;;5088477;28;20429;-66
2021/03/31 00:06:52;;;;;;;14.30;6.30;;;10.70;92.40;;;;;;5090207;28;20892;-66
2021/03/31 00:09:18;;;;;;;13.38;6.60;;;10.60;92.10;;;;;;5088531;28;20420;-65
2021/03/31 00:11:43;;;;;;;13.67;6.40;;;10.60;93.20;;;;;;5089368;28;20732;-65
2021/03/31 00:14:13;;;;;;;14.77;6.45;;;10.60;93.20;;;;;;5088346;28;20401;-66
2021/03/31 00:16:39;;;;;;;12.60;6.88;;;10.50;93.40;;;;;;5089008;28;20503;-66
2021/03/31 00:19:04;;;;;;;14.40;6.40;;;10.50;93.20;;;;;;5089034;28;20456;-66
2021/03/31 00:21:30;;;;;;;13.20;6.70;;;10.40;94.80;;;;;;5087748;28;20398;-66
2021/03/31 00:23:56;;;;;;;13.32;6.55;;;10.10;97.10;;;;;;5089368;28;20378;-66
2021/03/31 00:26:21;;;;;;;11.63;7.03;;;10.00;96.80;;;;;;5089013;28;20386;-66
2021/03/31 00:28:47;;;;;;;13.85;6.57;;;10.10;96.90;;;;;;5087943;28;20481;-65
2021/03/31 00:31:13;;;;;;;14.80;7.40;;;10.20;96.20;;;;;;5088462;28;20435;-67
2021/03/31 00:33:39;;;;;;;14.77;6.90;;;10.10;96.10;;;;;;5089489;28;20378;-67
2021/03/31 00:36:05;;;;;;;13.40;6.97;;;10.10;96.00;;;;;;5089682;28;20386;-67
2021/03/31 00:38:31;;;;;;;13.40;7.15;;;10.20;96.20;;;;;;5087267;28;20414;-66
2021/03/31 00:40:57;;;;;;;12.87;7.03;;;10.20;97.30;;;;;;5088958;28;20860;-63
2021/03/31 00:43:23;;;;;;;12.73;6.95;;;10.10;97.10;;;;;;5087894;28;20401;-66
2021/03/31 00:45:50;;;;;;;13.18;7.15;;;10.00;97.50;;;;;;5089574;28;20393;-66
2021/03/31 00:48:16;;;;;;;13.65;7.25;;;10.00;98.10;;;;;;5087690;28;20394;-67
2021/03/31 00:51:01;;;;;;;16.30;7.47;;;9.90;99.10;;;;;;5089397;28;20374;-67
2021/03/31 00:53:34;;;;;;;12.63;6.95;;;9.90;99.00;;;;;;5088869;28;20428;-66
2021/03/31 00:56:00;;;;;;;16.30;6.77;;;9.90;99.40;;;;;;5070175;28;20393;-67
2021/03/31 00:58:26;;;;;;;14.33;7.00;;;9.90;99.70;;;;;;5091385;28;20512;-67
2021/03/31 01:00:52;;;;;;;13.10;7.60;;;9.90;99.90;;;;;;5091009;28;20449;-67
2021/03/31 01:03:18;;;;;;;12.73;7.30;;;9.80;99.90;;;;;;5091491;28;20386;-67
2021/03/31 01:05:44;;;;;;;12.85;7.38;;;9.90;99.90;;;;;;5093769;28;20389;-66
2021/03/31 01:08:10;;;;;;;17.00;7.05;;;9.80;99.90;;;;;;5092671;28;20394;-67
2021/03/31 01:10:39;;;;;;;14.37;7.20;;;9.70;99.90;;;;;;5091893;28;20393;-67
2021/03/31 01:13:16;;;;;;;13.90;7.20;;;9.70;99.90;;;;;;5093020;28;20374;-66
2021/03/31 01:15:54;;;;;;;13.45;6.70;;;9.60;99.90;;;;;;5091147;28;20414;-67
2021/03/31 01:18:25;;;;;;;16.38;7.85;;;9.60;99.90;;;;;;5092166;28;20457;-67
2021/03/31 01:21:19;;;;;;;13.67;6.93;;;9.50;99.90;;;;;;5091463;28;20398;-67
2021/03/31 01:24:03;;;;;;;14.43;7.28;;;9.50;99.90;;;;;;5090676;28;20463;-67
2021/03/31 01:26:47;;;;;;;14.70;7.40;;;9.60;99.90;;;;;;5092236;28;20459;-67
2021/03/31 01:29:18;;;;;;;14.90;7.20;;;9.60;99.90;;;;;;5091276;28;21002;-59
2021/03/31 01:31:54;;;;;;;12.25;7.13;;;9.70;99.90;;;;;;5092835;28;20431;-67
2021/03/31 01:34:49;;;;;;;13.75;7.07;;;9.90;99.90;;;;;;5090950;28;20398;-68
2021/03/31 01:37:21;;;;;;;15.30;6.90;;;9.80;99.90;;;;;;5083322;28;20383;-59
2021/03/31 01:39:48;;;;;;;14.17;7.20;;;9.90;99.90;;;;;;5090454;28;20420;-67
2021/03/31 01:42:16;;;;;;;14.30;7.13;;;9.80;99.90;;;;;;5091135;28;20397;-59
2021/03/31 01:44:45;;;;;;;13.73;7.63;;;9.80;99.90;;;;;;5092518;28;20382;-67
2021/03/31 01:47:13;;;;;;;18.70;7.47;;;9.70;99.90;;;;;;5091303;28;20386;-67
2021/03/31 01:49:41;;;;;;;14.30;7.40;;;9.70;99.90;;;;;;5092445;28;20413;-67
2021/03/31 01:52:07;;;;;;;11.88;7.03;;;9.60;99.90;;;;;;5091179;28;20392;-66
2021/03/31 01:54:34;;;;;;;15.43;7.70;;;9.50;99.90;;;;;;5091590;28;20457;-67
2021/03/31 01:57:01;;;;;;;13.98;6.95;;;9.50;99.90;;;;;;5091842;28;20852;-66
2021/03/31 01:59:28;;;;;;;13.23;7.40;;;9.30;99.90;;;;;;5090227;28;20813;-67
2021/03/31 02:01:55;;;;;;;15.02;7.45;;;9.00;99.90;;;;;;5092324;28;20382;-66
2021/03/31 02:04:22;;;;;;;19.37;8.10;;;8.80;99.90;;;;;;5090091;28;20526;-67
2021/03/31 02:06:49;;;;;;;22.17;6.95;;;8.70;99.90;;;;;;5083027;28;20844;-68
2021/03/31 02:09:17;;;;;;;16.88;6.90;;;8.80;99.90;;;;;;5089040;28;20398;-67
2021/03/31 02:11:44;;;;;;;12.87;6.80;;;8.80;99.90;;;;;;5091278;28;20450;-66
2021/03/31 02:14:13;;;;;;;13.18;6.70;;;8.90;99.90;;;;;;5090371;28;20402;-65
2021/03/31 02:16:41;;;;;;;13.38;7.07;;;8.90;99.90;;;;;;5090305;28;20402;-65
2021/03/31 02:19:08;;;;;;;12.32;6.32;;;8.90;99.90;;;;;;5091280;28;20441;-67
2021/03/31 02:21:34;;;;;;;19.02;7.30;;;8.90;99.90;;;;;;5090009;28;20408;-67
2021/03/31 02:24:00;;;;;;;12.75;6.75;;;8.90;99.90;;;;;;5091859;28;20921;-67
2021/03/31 02:26:27;;;;;;;13.18;7.07;;;8.80;99.90;;;;;;5089070;28;20485;-68
2021/03/31 02:28:53;;;;;;;13.23;7.20;;;8.80;99.90;;;;;;5091127;28;20389;-64
2021/03/31 02:31:21;;;;;;;15.70;7.22;;;8.70;99.90;;;;;;5090284;28;20409;-67
2021/03/31 02:33:50;;;;;;;13.37;7.20;;;8.60;99.90;;;;;;5091816;28;20461;-66
2021/03/31 02:36:19;;;;;;;16.77;7.18;;;8.60;99.90;;;;;;5089796;28;20422;-57
2021/03/31 02:38:47;;;;;;;14.23;7.07;;;8.50;99.90;;;;;;5088742;28;20406;-67
2021/03/31 02:41:13;;;;;;;13.65;7.45;;;8.50;99.90;;;;;;5070930;28;20380;-68
2021/03/31 02:43:43;;;;;;;13.03;6.60;;;8.50;99.90;;;;;;5078415;28;20610;-64
2021/03/31 02:46:13;;;;;;;12.25;7.40;;;8.60;99.90;;;;;;5072902;28;20378;-67
2021/03/31 02:48:39;;;;;;;17.48;7.90;;;8.70;99.90;;;;;;5088724;28;20405;-66
2021/03/31 02:51:07;;;;;;;15.60;7.68;;;8.40;99.90;;;;;;5090955;28;20393;-66
2021/03/31 02:53:33;;;;;;;15.25;7.47;;;8.30;99.90;;;;;;5089384;28;20773;-67
2021/03/31 02:56:04;;;;;;;11.75;6.90;;;8.10;99.90;;;;;;5081844;28;20859;-67
2021/03/31 02:58:30;;;;;;;13.93;7.13;;;8.00;99.90;;;;;;5090074;28;20382;-67
2021/03/31 03:00:56;;;;;;;13.75;6.85;;;8.10;99.90;;;;;;5089505;28;20451;-66
2021/03/31 03:03:23;;;;;;;12.83;6.77;;;8.20;99.90;;;;;;5089021;28;20394;-63
2021/03/31 03:05:48;;;;;;;13.15;7.72;;;8.30;99.90;;;;;;5089092;28;20372;-67
2021/03/31 03:08:14;;;;;;;11.93;6.80;;;8.30;99.90;;;;;;5090152;28;20393;-59
2021/03/31 03:10:40;;;;;;;15.02;7.75;;;7.00;99.90;;;;;;5089921;28;20470;-66
2021/03/31 03:13:08;;;;;;;12.43;7.53;;;8.30;99.90;;;;;;5090666;28;20381;-67
2021/03/31 03:15:34;;;;;;;14.60;7.50;;;8.30;99.90;;;;;;5088800;28;20408;-66
2021/03/31 03:18:00;;;;;;;16.57;6.80;;;8.30;99.90;;;;;;5090754;28;20494;-67
2021/03/31 03:20:27;;;;;;;13.40;6.97;;;8.30;99.90;;;;;;5089847;28;20438;-66
2021/03/31 03:22:55;;;;;;;15.35;7.90;;;8.40;99.90;;;;;;5089203;28;20488;-67
2021/03/31 03:25:26;;;;;;;18.40;7.50;;;8.40;99.90;;;;;;5088297;28;20870;-66
2021/03/31 03:27:52;;;;;;;16.00;8.05;;;8.50;99.90;;;;;;5090371;28;20389;-67
2021/03/31 03:30:20;;;;;;;19.10;7.63;;;8.60;99.90;;;;;;5088378;28;20390;-59
2021/03/31 03:32:51;;;;;;;16.73;7.70;;;8.70;99.90;;;;;;5089906;28;20389;-67
2021/03/31 03:35:27;;;;;;;13.80;7.50;;;8.70;99.90;;;;;;5089085;28;20387;-59
2021/03/31 03:37:54;;;;;;;17.38;7.43;;;8.70;99.90;;;;;;5088778;28;20459;-66
2021/03/31 03:40:23;;;;;;;13.65;7.05;;;8.70;99.90;;;;;;5089121;28;20832;-63
2021/03/31 03:42:50;;;;;;;14.57;7.30;;;8.80;99.90;;;;;;5089061;28;20419;-67
2021/03/31 03:45:17;;;;;;;16.73;7.40;;;8.80;99.90;;;;;;5090030;28;20393;-58
2021/03/31 03:47:43;;;;;;;14.48;7.30;;;8.90;99.90;;;;;;5088686;28;20482;-68
2021/03/31 03:50:11;;;;;;;15.00;8.05;;;8.80;99.90;;;;;;5090494;28;20852;-67
2021/03/31 03:52:38;;;;;;;15.43;7.53;;;8.80;99.90;;;;;;5087421;28;20396;-67
2021/03/31 03:55:05;;;;;;;14.40;7.38;;;8.80;99.90;;;;;;5089809;28;20423;-65
2021/03/31 03:57:31;;;;;;;14.15;7.70;;;8.80;99.90;;;;;;5088132;28;20394;-67
2021/03/31 03:59:57;;;;;;;15.45;7.57;;;8.90;99.90;;;;;;5071670;28;20421;-67
2021/03/31 04:02:23;;;;;;;16.67;8.40;;;8.90;99.90;;;;;;5087484;28;20473;-66
2021/03/31 04:04:50;;;;;;;15.15;8.10;;;8.80;99.90;;;;;;5071406;28;20390;-67
2021/03/31 04:07:15;;;;;;;15.27;8.93;;;8.70;99.90;;;;;;5088293;28;20398;-59
2021/03/31 04:09:45;;;;;;;17.20;8.05;;;8.70;99.90;;;;;;5088438;28;20488;-61
2021/03/31 04:12:11;;;;;;;18.65;8.68;;;8.50;99.90;;;;;;5089938;28;20460;-63
2021/03/31 04:14:41;;;;;;;14.63;8.45;;;8.30;99.90;;;;;;5087054;28;20401;-67
2021/03/31 04:17:11;;;;;;;15.68;8.82;;;8.10;99.90;;;;;;5089583;28;20426;-67
2021/03/31 04:19:39;;;;;;;18.42;9.50;;;8.00;99.90;;;;;;5088417;28;20449;-67
2021/03/31 04:22:05;;;;;;;18.15;8.90;;;7.90;99.90;;;;;;5085180;28;20884;-66
2021/03/31 04:24:32;;;;;;;17.25;9.15;;;8.00;99.90;;;;;;5088484;28;20394;-66
2021/03/31 04:26:59;;;;;;;16.17;8.63;;;8.00;99.90;;;;;;5089070;28;20398;-58
2021/03/31 04:29:25;;;;;;;15.52;8.07;;;8.00;99.90;;;;;;5068922;28;20929;-67
2021/03/31 04:31:51;;;;;;;14.02;7.88;;;8.20;99.90;;;;;;5082407;28;20390;-66
2021/03/31 04:34:19;;;;;;;16.23;8.60;;;8.30;99.90;;;;;;5077761;28;20395;-60
2021/03/31 04:36:45;;;;;;;19.00;7.95;;;8.20;99.90;;;;;;5070974;28;20405;-67
2021/03/31 04:39:11;;;;;;;17.90;8.55;;;8.50;99.90;;;;;;5093809;28;20402;-66
2021/03/31 04:41:36;;;;;;;19.70;8.70;;;8.50;99.90;;;;;;5091281;28;20386;-67
2021/03/31 04:44:03;;;;;;;17.15;9.18;;;8.50;99.90;;;;;;5063044;28;20849;-67
2021/03/31 04:46:29;;;;;;;14.52;8.80;;;8.50;99.90;;;;;;5081196;28;20406;-67
2021/03/31 04:48:55;;;;;;;16.30;8.93;;;8.50;99.90;;;;;;5092613;28;20726;-66
2021/03/31 04:51:20;;;;;;;16.95;8.80;;;8.50;99.90;;;;;;5076542;28;20421;-60
2021/03/31 04:53:46;;;;;;;16.93;8.40;;;8.50;99.90;;;;;;5092727;28;20389;-66
2021/03/31 04:56:12;;;;;;;16.48;8.20;;;8.60;99.90;;;;;;5092320;28;20394;-67
2021/03/31 04:58:38;;;;;;;18.35;8.55;;;8.60;99.90;;;;;;5091962;28;20433;-66
2021/03/31 05:01:04;;;;;;;18.40;8.48;;;8.70;99.90;;;;;;5091860;28;20421;-67
2021/03/31 05:03:29;;;;;;;15.30;7.97;;;8.70;99.90;;;;;;5092676;28;20402;-65
2021/03/31 05:05:55;;;;;;;16.33;8.27;;;8.70;99.90;;;;;;5091456;28;20936;-66
2021/03/31 05:08:21;;;;;;;13.97;7.60;;;8.80;99.90;;;;;;5092435;28;20478;-58
2021/03/31 05:10:47;;;;;;;14.05;8.27;;;8.80;99.90;;;;;;5090029;28;20385;-66
2021/03/31 05:13:13;;;;;;;22.70;9.03;;;8.90;99.90;;;;;;5088017;28;20425;-66
2021/03/31 05:15:39;;;;;;;18.00;8.43;;;9.10;99.90;;;;;;5071120;28;20397;-66
2021/03/31 05:18:05;;;;;;;15.32;8.70;;;8.90;99.90;;;;;;5092800;28;20891;-65
2021/03/31 05:20:31;;;;;;;20.27;8.77;;;8.90;99.90;;;;;;5087818;28;20453;-66
2021/03/31 05:22:57;;;;;;;20.30;8.50;;;8.90;99.90;;;;;;5091424;28;20406;-64
2021/03/31 05:25:22;;;;;;;18.90;8.70;;;8.90;99.90;;;;;;5072334;28;20479;-65
2021/03/31 05:27:48;;;;;;;16.30;9.30;;;9.00;99.90;;;;;;5086165;28;20477;-61
2021/03/31 05:30:14;;;;;;;17.63;9.00;;;9.00;99.90;;;;;;5087551;28;20500;-65
2021/03/31 05:32:40;;;;;;;19.35;9.60;;;9.10;99.90;;;;;;5087752;28;20680;-66
2021/03/31 05:35:07;;;;;;;20.07;8.03;;;9.20;99.90;;;;;;5092498;28;20856;-64
2021/03/31 05:37:33;;;;;;;18.55;8.23;;;9.30;99.90;;;;;;5090510;28;20440;-64
2021/03/31 05:39:59;;;;;;;15.55;8.55;;;9.50;99.90;;;;;;5091937;28;20409;-64
2021/03/31 05:42:25;;;;;;;23.57;9.40;;;9.60;99.90;;;;;;5091286;28;20435;-65
2021/03/31 05:44:51;;;;;;;20.07;9.10;;;9.90;99.90;;;;;;5089839;28;20393;-64
2021/03/31 05:47:29;;;;;;;18.27;8.50;;;10.40;99.90;;;;;;5092743;28;20382;-65
2021/03/31 05:49:55;;;;;;;17.90;9.30;;;10.90;99.90;;;;;;5090930;28;21005;-65
2021/03/31 05:52:22;;;;;;;20.52;8.50;;;11.50;99.90;;;;;;5091699;28;20899;-65
2021/03/31 05:54:48;;;;;;;14.87;8.87;;;11.90;99.90;;;;;;5087917;28;20805;-65
2021/03/31 05:57:18;;;;;;;18.15;8.82;;;11.90;99.90;;;;;;5083070;28;20994;-60
2021/03/31 05:59:45;;;;;;;16.90;8.10;;;11.80;99.90;;;;;;5088062;28;20464;-65
2021/03/31 06:02:12;;;;;;;17.02;8.70;;;11.70;99.90;;;;;;5089997;28;20886;-64
2021/03/31 06:04:44;;;;;;;15.35;9.00;;;11.50;99.90;;;;;;5090932;28;20415;-65
2021/03/31 06:07:11;;;;;;;15.90;8.80;;;11.20;99.90;;;;;;5081876;28;20415;-64
2021/03/31 06:10:02;;;;;;;18.17;9.13;;;11.10;99.90;;;;;;5090169;28;20398;-64
2021/03/31 06:12:31;;;;;;;16.15;8.73;;;11.20;99.90;;;;;;5090786;28;20385;-65
2021/03/31 06:15:14;;;;;;;18.27;8.97;;;11.80;99.90;;;;;;5089505;28;20451;-64
2021/03/31 06:17:54;;;;;;;14.35;8.30;;;12.70;99.90;;;;;;5091073;28;20381;-64
2021/03/31 06:20:36;;;;;;;16.02;8.57;;;13.90;99.90;;;;;;5089596;28;20457;-59
2021/03/31 06:25:45;;;;;;;18.48;8.50;;;16.30;94.80;;;;;;5090810;28;20447;-64
2021/03/31 06:28:11;;;;;;;15.70;9.02;;;17.50;90.40;;;;;;5091130;28;20387;-64
2021/03/31 06:30:37;;;;;;;18.45;9.07;;;17.60;86.10;;;;;;5089860;28;20521;-65
2021/03/31 06:33:03;;;;;;;16.80;9.00;;;17.40;85.30;;;;;;5087796;28;20883;-64
2021/03/31 06:35:29;;;;;;;17.80;9.15;;;17.00;85.70;;;;;;5089117;28;20396;-64
2021/03/31 06:38:07;;;;;;;18.25;9.57;;;16.10;87.30;;;;;;5089649;28;20408;-64
2021/03/31 06:43:22;;;;;;;19.25;9.52;;;15.00;91.00;;;;;;5091539;28;20394;-65
2021/03/31 06:46:04;;;;;;;18.83;9.20;;;14.70;91.90;;;;;;5071839;28;20405;-64
2021/03/31 06:48:32;;;;;;;16.20;9.13;;;14.60;92.40;;;;;;5090447;28;20382;-65
2021/03/31 06:50:58;;;;;;;16.30;8.80;;;14.20;93.10;;;;;;5090677;28;20443;-63
2021/03/31 06:53:28;;;;;;;17.10;8.85;;;14.20;93.60;;;;;;5089337;28;20414;-58
2021/03/31 06:55:58;;;;;;;19.73;9.32;;;14.40;93.70;;;;;;5089391;28;20408;-63
2021/03/31 06:58:24;;;;;;;16.35;9.57;;;14.50;93.90;;;;;;5089885;28;20680;-64
2021/03/31 07:00:49;;;;;;;14.87;9.20;;;14.60;93.80;;;;;;5090103;28;22216;-64
2021/03/31 07:03:15;;;;;;;15.82;8.50;;;14.50;94.10;;;;;;5090164;28;20844;-64
2021/03/31 07:05:41;;;;;;;17.00;9.40;;;14.80;93.70;;;;;;5088198;28;20462;-63
2021/03/31 07:08:11;;;;;;;16.58;9.23;;;15.20;93.10;;;;;;5072704;28;20382;-62
2021/03/31 07:11:06;;;;;;;17.50;8.75;;;16.10;91.50;;;;;;5089172;28;20410;-64
2021/03/31 07:13:34;;;;;;;15.68;9.32;;;16.70;89.60;;;;;;5067454;28;20433;-63
2021/03/31 07:16:02;;;;;;;15.93;9.47;;;16.70;88.00;;;;;;5089390;28;20417;-63
2021/03/31 07:18:30;;;;;;;16.42;9.23;;;16.60;87.30;;;;;;5089307;28;20428;-63
2021/03/31 07:20:56;;;;;;;15.50;9.30;;;17.00;86.10;;;;;;5088754;28;20394;-63
2021/03/31 07:23:25;;;;;;;15.77;9.13;;;17.90;83.00;;;;;;5089727;28;20453;-58
2021/03/31 07:25:52;;;;;;;16.55;8.98;;;18.80;78.00;;;;;;5089969;28;20393;-62
2021/03/31 07:28:25;;;;;;;19.27;10.20;;;19.50;75.00;;;;;;5088592;28;20402;-63
2021/03/31 07:30:51;;;;;;;17.50;9.25;;;19.70;73.30;;;;;;5090164;28;20378;-60
2021/03/31 07:33:22;;;;;;;16.70;9.70;;;20.00;70.40;;;;;;5088559;28;20880;-62
2021/03/31 07:35:49;;;;;;;15.75;9.70;;;20.40;69.50;;;;;;5089048;28;20443;-62
2021/03/31 07:38:18;;;;;;;15.77;10.05;;;21.20;65.80;;;;;;5089809;28;20381;-60
2021/03/31 07:40:45;;;;;;;17.85;10.43;;;22.50;61.10;;;;;;5089370;28;20401;-60
2021/03/31 07:43:34;;;;;;;17.15;9.73;;;23.20;57.80;;;;;;5088667;28;20981;-60
2021/03/31 07:46:00;;;;;;;14.07;8.95;;;23.50;55.90;;;;;;5087571;28;20720;-62
2021/03/31 07:48:27;;;;;;;15.43;9.87;;;22.70;55.10;;;;;;5088292;28;20402;-60
2021/03/31 07:50:52;;;;;;;16.80;9.50;;;22.30;55.90;;;;;;5089736;28;20400;-60
2021/03/31 07:53:22;;;;;;;19.23;10.47;;;22.30;55.90;;;;;;5089318;28;20390;-60
2021/03/31 07:55:49;;;;;;;18.08;9.60;;;22.70;55.60;;;;;;5087976;28;20409;-60
2021/03/31 07:58:21;;;;;;;13.68;9.63;;;23.80;54.30;;;;;;5089425;28;20388;-60
2021/03/31 08:03:16;;;;;;;15.47;10.43;;;26.10;49.10;;;;;;5088412;28;20760;-62
2021/03/31 08:06:04;;;;;;;14.40;9.80;;;26.20;48.90;;;;;;5087708;28;20396;-60
2021/03/31 08:08:34;;;;;;;15.90;9.97;;;27.00;45.80;;;;;;5087868;28;20856;-61
2021/03/31 08:11:01;;;;;;;16.53;10.10;;;27.10;45.30;;;;;;5088215;28;20878;-61
2021/03/31 08:13:30;;;;;;;20.77;9.60;;;27.20;44.60;;;;;;5088915;28;20381;-60
2021/03/31 08:15:58;;;;;;;16.98;10.50;;;27.20;44.70;;;;;;5088502;28;20489;-60
2021/03/31 08:18:25;;;;;;;17.20;9.70;;;27.30;44.40;;;;;;5088189;28;20402;-58
2021/03/31 08:20:52;;;;;;;16.83;11.00;;;27.50;44.10;;;;;;5089545;28;20465;-61
2021/03/31 08:23:52;;;;;;;17.42;10.88;;;27.40;43.40;;;;;;5088077;28;20397;-62
2021/03/31 08:26:40;;;;;;;14.40;9.63;;;27.50;43.60;;;;;;5067060;28;20403;-62
2021/03/31 08:29:10;;;;;;;15.00;10.05;;;27.80;42.90;;;;;;5078327;28;20413;-60
2021/03/31 08:31:41;;;;;;;21.60;10.00;;;27.90;41.70;;;;;;5088214;28;20393;-61
2021/03/31 08:34:08;;;;;;;17.70;10.15;;;28.40;41.30;;;;;;5071478;28;20416;-61
2021/03/31 08:36:38;;;;;;;15.88;9.80;;;28.80;40.00;;;;;;5087446;28;20394;-61
2021/03/31 08:39:07;;;;;;;17.63;10.48;;;29.00;39.40;;;;;;5088838;28;20436;-62
2021/03/31 08:41:33;;;;;;;17.88;11.00;;;29.20;39.90;;;;;;5069717;28;20477;-60
2021/03/31 08:44:24;;;;;;;17.25;9.48;;;30.10;38.60;;;;;;5089819;28;20374;-60
2021/03/31 08:46:54;;;;;;;15.98;9.93;;;31.00;37.50;;;;;;5087457;28;20386;-62
2021/03/31 08:49:23;;;;;;;18.90;10.68;;;31.40;36.60;;;;;;5088733;28;20397;-60
2021/03/31 08:51:52;;;;;;;16.90;10.80;;;31.90;36.20;;;;;;5087253;28;20385;-61
2021/03/31 08:54:31;;;;;;;16.70;10.38;;;32.00;35.50;;;;;;5070639;28;20391;-60
2021/03/31 08:57:09;;;;;;;15.40;10.55;;;30.90;36.10;;;;;;5087724;28;20386;-62
2021/03/31 08:59:37;;;;;;;17.17;10.37;;;31.00;35.90;;;;;;5086914;28;20421;-61
2021/03/31 09:02:04;;;;;;;16.10;10.02;;;31.50;35.60;;;;;;5088899;28;20433;-61
2021/03/31 09:04:31;;;;;;;17.85;10.52;;;31.80;35.00;;;;;;5088407;28;20482;-61
2021/03/31 09:06:58;;;;;;;19.10;11.60;;;31.70;34.40;;;;;;5081537;28;20436;-60
2021/03/31 09:09:24;;;;;;;17.77;10.43;;;32.30;33.80;;;;;;5088228;28;20454;-58
2021/03/31 09:12:04;;;;;;;19.20;11.80;;;32.90;33.60;;;;;;5088076;28;20389;-61
2021/03/31 09:14:30;;;;;;;18.17;10.57;;;33.30;32.40;;;;;;5087557;28;20409;-60
2021/03/31 09:16:58;;;;;;;15.45;10.02;;;34.30;31.10;;;;;;5088338;28;20491;-58
2021/03/31 09:19:25;;;;;;;19.42;10.70;;;34.00;32.10;;;;;;5091861;28;20425;-58
2021/03/31 09:21:52;;;;;;;17.73;10.32;;;33.80;31.90;;;;;;5091449;28;20414;-61
2021/03/31 09:24:27;;;;;;;17.58;10.38;;;33.50;31.10;;;;;;5092497;28;20836;-61
2021/03/31 09:27:04;;;;;;;19.13;11.43;;;34.20;30.20;;;;;;5093079;28;20463;-61
2021/03/31 09:29:30;;;;;;;19.48;11.45;;;34.10;29.90;;;;;;5090645;28;20424;-61
2021/03/31 09:31:57;;;;;;;19.92;11.80;;;34.20;29.60;;;;;;5074324;28;20843;-61
2021/03/31 09:34:24;;;;;;;18.30;11.83;;;33.80;29.70;;;;;;5092076;28;20465;-58
2021/03/31 09:37:07;;;;;;;18.33;11.05;;;34.50;29.90;;;;;;5091079;28;20426;-61
2021/03/31 09:39:44;;;;;;;18.88;11.23;;;35.30;29.10;;;;;;5090058;28;20418;-61
2021/03/31 09:42:31;;;;;;;19.83;11.23;;;35.20;29.00;;;;;;5091968;28;20730;-61
2021/03/31 09:44:58;;;;;;;20.52;12.48;;;34.90;29.20;;;;;;5072930;28;20738;-60
2021/03/31 09:47:26;;;;;;;24.02;12.07;;;35.00;29.10;;;;;;5091974;28;20385;-59
2021/03/31 09:49:54;;;;;;;20.50;12.15;;;35.40;28.40;;;;;;5092049;28;20398;-60
2021/03/31 09:52:32;;;;;;;21.95;11.93;;;34.70;28.40;;;;;;5090776;28;20404;-61
2021/03/31 09:55:13;;;;;;;19.45;11.88;;;34.80;28.30;;;;;;5091981;28;20378;-61
2021/03/31 09:57:41;;;;;;;19.40;12.53;;;34.50;28.90;;;;;;5090299;28;20401;-60
2021/03/31 10:00:13;;;;;;;22.30;12.40;;;34.50;29.10;;;;;;5091658;28;20410;-61
2021/03/31 10:02:43;;;;;;;20.70;12.57;;;34.30;29.60;;;;;;5089914;28;20417;-60
2021/03/31 10:05:18;;;;;;;21.30;12.10;;;34.50;28.40;;;;;;5091994;28;20460;-60
2021/03/31 10:08:06;;;;;;;19.58;11.93;;;34.80;28.30;;;;;;5072268;28;20380;-60
2021/03/31 10:10:47;;;;;;;18.50;12.17;;;34.40;29.00;;;;;;5086386;28;20400;-60
2021/03/31 10:13:15;;;;;;;24.50;13.30;;;34.90;28.80;;;;;;5091579;28;20424;-60
2021/03/31 10:15:47;;;;;;;19.70;13.38;;;35.40;28.40;;;;;;5089907;28;20468;-60
2021/03/31 10:18:14;;;;;;;20.10;13.80;;;36.40;27.40;;;;;;5090441;28;20492;-59
2021/03/31 10:20:47;;;;;;;22.80;12.67;;;36.50;27.50;;;;;;5090634;28;20406;-61
2021/03/31 10:23:33;;;;;;;19.15;12.20;;;35.70;27.90;;;;;;5091682;28;20378;-61
2021/03/31 10:26:20;;;;;;;20.25;13.32;;;35.30;27.70;;;;;;5089751;28;20537;-61
2021/03/31 10:28:47;;;;;;;23.67;12.63;;;35.30;27.90;;;;;;5090291;28;20392;-61
2021/03/31 10:31:27;;;;;;;22.77;12.60;;;34.10;28.40;;;;;;5090662;28;20518;-60
2021/03/31 10:33:54;;;;;;;24.70;13.67;;;33.20;29.60;;;;;;5090931;28;20378;-60
2021/03/31 10:36:48;;;;;;;23.30;13.23;;;33.50;28.70;;;;;;5090172;28;20409;-60
2021/03/31 10:39:45;;;;;;;20.23;12.83;;;32.90;28.90;;;;;;5091263;28;20410;-59
2021/03/31 10:50:13;;;;;;;20.92;13.05;;;32.40;29.60;;;;;;5090762;28;20386;-59
2021/03/31 10:52:46;;;;;;;19.88;12.05;;;33.00;28.70;;;;;;5089881;28;20397;-60
2021/03/31 10:55:12;;;;;;;24.63;13.88;;;32.50;29.00;;;;;;5089946;28;20429;-61
2021/03/31 10:57:38;;;;;;;23.77;12.15;;;32.10;29.40;;;;;;5090032;28;20421;-61
2021/03/31 11:00:05;;;;;;;22.58;13.13;;;32.10;29.00;;;;;;5089550;28;20903;-60
2021/03/31 11:02:30;;;;;;;22.88;13.52;;;31.30;29.80;;;;;;5089030;28;20482;-59
2021/03/31 11:04:56;;;;;;;26.50;12.43;;;31.30;29.90;;;;;;5090204;28;20397;-61
2021/03/31 11:07:22;;;;;;;23.77;12.80;;;31.60;29.60;;;;;;5082337;28;20538;-60
2021/03/31 11:09:49;;;;;;;21.70;12.70;;;31.80;29.60;;;;;;5089631;28;20378;-61
2021/03/31 11:12:15;;;;;;;21.38;11.82;;;31.90;29.10;;;;;;5088988;28;20450;-61
2021/03/31 11:14:41;;;;;;;23.33;12.60;;;31.50;29.00;;;;;;5089166;28;20389;-60
2021/03/31 11:17:15;;;;;;;23.35;13.10;;;31.60;29.00;;;;;;5089775;28;20760;-60
2021/03/31 11:27:42;;;;;;;23.67;12.90;;;30.80;30.00;;;;;;5088192;28;20409;-61
2021/03/31 11:30:10;;;;;;;21.95;12.13;;;30.60;29.90;;;;;;5089247;28;20748;-60
2021/03/31 11:32:39;;;;;;;23.08;13.50;;;30.60;30.00;;;;;;5089552;28;20420;-60
2021/03/31 11:35:06;;;;;;;20.93;12.30;;;30.20;30.20;;;;;;5090087;28;20924;-61
2021/03/31 11:37:32;;;;;;;26.50;12.80;;;29.30;31.00;;;;;;5088342;28;20401;-62
2021/03/31 11:39:58;;;;;;;23.42;13.32;;;28.70;32.00;;;;;;5090309;28;20499;-61
2021/03/31 11:42:23;;;;;;;24.27;13.20;;;28.30;32.70;;;;;;5087806;28;20393;-60
2021/03/31 11:44:49;;;;;;;22.00;12.20;;;28.10;32.80;;;;;;5089372;28;20401;-60
2021/03/31 11:47:15;;;;;;;25.65;12.52;;;27.90;32.50;;;;;;5088348;28;20482;-59
2021/03/31 11:49:41;;;;;;;22.10;12.20;;;28.00;32.30;;;;;;5088637;28;21054;-60
2021/03/31 11:52:07;;;;;;;20.08;11.50;;;27.70;33.00;;;;;;5089963;28;20393;-60
2021/03/31 11:54:33;;;;;;;21.53;11.00;;;27.80;32.30;;;;;;5088184;28;20401;-60
2021/03/31 11:56:58;;;;;;;21.23;11.57;;;28.00;32.00;;;;;;5071578;28;20402;-60
2021/03/31 11:59:24;;;;;;;19.20;10.60;;;27.80;31.70;;;;;;5090129;28;20442;-60
2021/03/31 12:01:50;;;;;;;17.70;10.10;;;27.90;32.20;;;;;;5087686;28;20394;-60
2021/03/31 12:04:18;;;;;;;20.53;12.00;;;28.20;31.60;;;;;;5089743;28;20461;-59
2021/03/31 12:06:44;;;;;;;17.85;11.23;;;28.10;32.10;;;;;;5083871;28;20400;-60
2021/03/31 12:09:11;;;;;;;22.10;11.13;;;28.00;32.30;;;;;;5089507;28;20741;-60
2021/03/31 12:11:36;;;;;;;18.77;9.82;;;28.00;32.80;;;;;;5087687;28;20390;-60
2021/03/31 12:14:02;;;;;;;19.58;11.60;;;28.10;32.10;;;;;;5089609;28;20874;-60
2021/03/31 12:16:28;;;;;;;20.70;10.38;;;28.30;32.30;;;;;;5087867;28;20406;-58
2021/03/31 12:18:54;;;;;;;19.63;11.73;;;27.70;32.70;;;;;;5089178;28;20467;-59
2021/03/31 12:21:19;;;;;;;19.83;10.20;;;27.40;32.50;;;;;;5089454;28;20440;-60
2021/03/31 12:23:45;;;;;;;20.60;10.83;;;27.50;33.00;;;;;;5087624;28;20867;-60
2021/03/31 12:26:13;;;;;;;23.47;11.37;;;27.70;32.60;;;;;;5089034;28;20902;-60
2021/03/31 12:28:39;;;;;;;21.02;11.05;;;27.60;32.60;;;;;;5087798;28;20405;-61
2021/03/31 12:31:08;;;;;;;22.20;12.20;;;27.80;32.60;;;;;;5089401;28;20835;-61
2021/03/31 12:33:35;;;;;;;22.13;11.68;;;27.80;32.70;;;;;;5087400;28;20390;-60
2021/03/31 12:36:01;;;;;;;22.30;11.50;;;27.70;32.90;;;;;;5088898;28;20370;-61
2021/03/31 12:38:27;;;;;;;19.52;10.80;;;27.70;32.80;;;;;;5087956;28;20486;-61
2021/03/31 12:40:52;;;;;;;21.50;11.50;;;28.00;33.50;;;;;;5087905;28;20889;-60
2021/03/31 12:43:20;;;;;;;23.13;12.00;;;27.80;32.90;;;;;;5088451;28;20398;-61
2021/03/31 12:45:45;;;;;;;21.90;11.80;;;27.60;32.40;;;;;;5087025;28;20515;-61
2021/03/31 12:48:11;;;;;;;20.95;11.52;;;27.50;33.40;;;;;;5089651;28;20417;-61
2021/03/31 12:50:38;;;;;;;20.30;11.05;;;27.70;32.70;;;;;;5088135;28;20412;-60
2021/03/31 12:55:42;;;;;;;17.55;10.68;;;27.80;32.90;;;;;;5092587;28;20855;-61
2021/03/31 12:58:11;;;;;;;18.88;9.70;;;28.00;32.60;;;;;;5091728;28;20771;-60
2021/03/31 13:00:37;;;;;;;17.45;8.85;;;28.00;32.70;;;;;;5073947;28;20448;-61
2021/03/31 13:03:03;;;;;;;18.60;10.30;;;27.90;32.40;;;;;;5092960;28;20408;-61
2021/03/31 13:05:29;;;;;;;19.70;10.45;;;28.10;32.20;;;;;;5091143;28;20398;-58
2021/03/31 13:07:55;;;;;;;19.35;9.70;;;28.10;32.20;;;;;;5090648;28;20405;-61
2021/03/31 13:10:21;;;;;;;22.63;10.85;;;28.00;32.60;;;;;;5091847;28;20397;-61
2021/03/31 13:12:55;;;;;;;22.63;11.18;;;27.60;33.20;;;;;;5092459;28;20520;-61
2021/03/31 13:15:34;;;;;;;18.58;9.80;;;27.50;33.20;;;;;;5091808;28;20405;-61